sensor_id;sensor_type;location;lat;lon;timestamp;P1;durP1;ratioP1;P2;durP2;ratioP2
39772;SDS011;25451;51.960;6.250;2024-01-11T00:01:09;16.70;;;6.75;;
39772;SDS011;25451;51.960;6.250;2024-01-11T00:03:35;12.60;;;5.97;;
39772;SDS011;25451;51.960;6.250;2024-01-11T00:06:00;14.00;;;6.17;;
39772;SDS011;25451;51.960;6.250;2024-01-11T00:08:26;18.27;;;6.65;;
39772;SDS011;25451;51.960;6.250;2024-01-11T00:10:51;16.40;;;5.83;;
39772;SDS011;25451;51.960;6.250;2024-01-11T00:13:16;13.73;;;6.47;;
39772;SDS011;25451;51.960;6.250;2024-01-11T00:15:42;13.13;;;6.10;;
39772;SDS011;25451;51.960;6.250;2024-01-11T00:18:07;15.33;;;6.33;;
39772;SDS011;25451;51.960;6.250;2024-01-11T00:20:32;13.03;;;5.67;;
39772;SDS011;25451;51.960;6.250;2024-01-11T00:22:58;17.33;;;6.73;;
39772;SDS011;25451;51.960;6.250;2024-01-11T00:25:23;12.67;;;5.50;;
39772;SDS011;25451;51.960;6.250;2024-01-11T00:27:48;14.00;;;6.37;;
39772;SDS011;25451;51.960;6.250;2024-01-11T00:30:14;15.82;;;7.28;;
39772;SDS011;25451;51.960;6.250;2024-01-11T00:32:39;13.73;;;6.30;;
39772;SDS011;25451;51.960;6.250;2024-01-11T00:35:05;12.57;;;5.63;;
39772;SDS011;25451;51.960;6.250;2024-01-11T00:37:30;15.00;;;6.55;;
39772;SDS011;25451;51.960;6.250;2024-01-11T00:39:56;13.27;;;6.10;;
39772;SDS011;25451;51.960;6.250;2024-01-11T00:42:21;13.33;;;6.03;;
39772;SDS011;25451;51.960;6.250;2024-01-11T00:44:46;15.70;;;6.63;;
39772;SDS011;25451;51.960;6.250;2024-01-11T00:47:12;14.97;;;6.83;;
39772;SDS011;25451;51.960;6.250;2024-01-11T00:49:37;18.90;;;6.67;;
39772;SDS011;25451;51.960;6.250;2024-01-11T00:52:02;11.47;;;5.40;;
39772;SDS011;25451;51.960;6.250;2024-01-11T00:54:29;12.75;;;5.55;;
39772;SDS011;25451;51.960;6.250;2024-01-11T00:56:54;15.83;;;6.00;;
39772;SDS011;25451;51.960;6.250;2024-01-11T00:59:20;15.00;;;6.63;;
39772;SDS011;25451;51.960;6.250;2024-01-11T01:01:48;15.10;;;5.80;;
39772;SDS011;25451;51.960;6.250;2024-01-11T01:04:14;15.05;;;5.90;;
39772;SDS011;25451;51.960;6.250;2024-01-11T01:06:40;11.97;;;5.60;;
39772;SDS011;25451;51.960;6.250;2024-01-11T01:09:06;12.88;;;5.72;;
39772;SDS011;25451;51.960;6.250;2024-01-11T01:11:31;13.47;;;5.60;;
39772;SDS011;25451;51.960;6.250;2024-01-11T01:13:57;13.27;;;5.80;;
39772;SDS011;25451;51.960;6.250;2024-01-11T01:16:22;14.47;;;5.53;;
39772;SDS011;25451;51.960;6.250;2024-01-11T01:18:47;11.53;;;6.23;;
39772;SDS011;25451;51.960;6.250;2024-01-11T01:21:12;12.37;;;5.63;;
39772;SDS011;25451;51.960;6.250;2024-01-11T01:23:38;14.17;;;5.43;;
39772;SDS011;25451;51.960;6.250;2024-01-11T01:26:03;17.33;;;5.80;;
39772;SDS011;25451;51.960;6.250;2024-01-11T01:28:28;13.47;;;6.33;;
39772;SDS011;25451;51.960;6.250;2024-01-11T01:30:53;10.90;;;5.60;;
39772;SDS011;25451;51.960;6.250;2024-01-11T01:33:19;14.17;;;5.60;;
39772;SDS011;25451;51.960;6.250;2024-01-11T01:35:44;12.47;;;5.37;;
39772;SDS011;25451;51.960;6.250;2024-01-11T01:38:10;13.68;;;5.93;;
39772;SDS011;25451;51.960;6.250;2024-01-11T01:40:36;12.47;;;5.63;;
39772;SDS011;25451;51.960;6.250;2024-01-11T01:43:06;13.57;;;5.05;;
39772;SDS011;25451;51.960;6.250;2024-01-11T01:45:32;12.45;;;5.13;;
39772;SDS011;25451;51.960;6.250;2024-01-11T01:47:57;15.77;;;6.03;;
39772;SDS011;25451;51.960;6.250;2024-01-11T01:50:22;9.83;;;4.63;;
39772;SDS011;25451;51.960;6.250;2024-01-11T01:52:48;15.40;;;6.40;;
39772;SDS011;25451;51.960;6.250;2024-01-11T01:55:14;14.03;;;5.63;;
39772;SDS011;25451;51.960;6.250;2024-01-11T01:57:41;9.25;;;4.60;;
39772;SDS011;25451;51.960;6.250;2024-01-11T02:00:08;14.25;;;5.03;;
39772;SDS011;25451;51.960;6.250;2024-01-11T02:02:36;12.85;;;5.15;;
39772;SDS011;25451;51.960;6.250;2024-01-11T02:05:04;11.47;;;5.00;;
39772;SDS011;25451;51.960;6.250;2024-01-11T02:07:31;9.02;;;4.40;;
39772;SDS011;25451;51.960;6.250;2024-01-11T02:09:56;13.10;;;5.07;;
39772;SDS011;25451;51.960;6.250;2024-01-11T02:12:22;15.20;;;5.45;;
39772;SDS011;25451;51.960;6.250;2024-01-11T02:14:49;13.50;;;4.43;;
39772;SDS011;25451;51.960;6.250;2024-01-11T02:17:14;12.52;;;5.05;;
39772;SDS011;25451;51.960;6.250;2024-01-11T02:19:40;13.03;;;5.70;;
39772;SDS011;25451;51.960;6.250;2024-01-11T02:22:08;10.47;;;5.33;;
39772;SDS011;25451;51.960;6.250;2024-01-11T02:24:47;9.32;;;4.10;;
39772;SDS011;25451;51.960;6.250;2024-01-11T02:27:12;11.47;;;5.17;;
39772;SDS011;25451;51.960;6.250;2024-01-11T02:29:38;11.23;;;4.93;;
39772;SDS011;25451;51.960;6.250;2024-01-11T02:32:03;15.90;;;5.77;;
39772;SDS011;25451;51.960;6.250;2024-01-11T02:34:31;7.25;;;4.25;;
39772;SDS011;25451;51.960;6.250;2024-01-11T02:36:56;10.13;;;4.77;;
39772;SDS011;25451;51.960;6.250;2024-01-11T02:39:22;9.07;;;4.47;;
39772;SDS011;25451;51.960;6.250;2024-01-11T02:41:50;8.50;;;4.40;;
39772;SDS011;25451;51.960;6.250;2024-01-11T02:44:16;9.27;;;4.25;;
39772;SDS011;25451;51.960;6.250;2024-01-11T02:46:41;8.03;;;4.37;;
39772;SDS011;25451;51.960;6.250;2024-01-11T02:49:06;12.00;;;4.80;;
39772;SDS011;25451;51.960;6.250;2024-01-11T02:51:32;8.87;;;4.20;;
39772;SDS011;25451;51.960;6.250;2024-01-11T02:53:57;14.23;;;5.38;;
39772;SDS011;25451;51.960;6.250;2024-01-11T02:56:23;8.30;;;4.13;;
39772;SDS011;25451;51.960;6.250;2024-01-11T02:58:48;8.00;;;4.03;;
39772;SDS011;25451;51.960;6.250;2024-01-11T03:01:14;9.13;;;4.20;;
39772;SDS011;25451;51.960;6.250;2024-01-11T03:03:39;11.20;;;4.90;;
39772;SDS011;25451;51.960;6.250;2024-01-11T03:06:04;9.17;;;3.97;;
39772;SDS011;25451;51.960;6.250;2024-01-11T03:08:30;10.10;;;4.33;;
39772;SDS011;25451;51.960;6.250;2024-01-11T03:10:55;10.80;;;3.90;;
39772;SDS011;25451;51.960;6.250;2024-01-11T03:13:20;14.83;;;5.07;;
39772;SDS011;25451;51.960;6.250;2024-01-11T03:15:46;10.43;;;4.63;;
39772;SDS011;25451;51.960;6.250;2024-01-11T03:18:11;10.97;;;4.50;;
39772;SDS011;25451;51.960;6.250;2024-01-11T03:20:36;14.20;;;5.87;;
39772;SDS011;25451;51.960;6.250;2024-01-11T03:23:01;12.77;;;5.33;;
39772;SDS011;25451;51.960;6.250;2024-01-11T03:25:28;11.20;;;4.93;;
39772;SDS011;25451;51.960;6.250;2024-01-11T03:27:54;11.13;;;4.70;;
39772;SDS011;25451;51.960;6.250;2024-01-11T03:30:19;12.07;;;4.73;;
39772;SDS011;25451;51.960;6.250;2024-01-11T03:32:44;12.50;;;4.77;;
39772;SDS011;25451;51.960;6.250;2024-01-11T03:35:10;12.37;;;5.23;;
39772;SDS011;25451;51.960;6.250;2024-01-11T03:37:35;11.40;;;5.30;;
39772;SDS011;25451;51.960;6.250;2024-01-11T03:40:02;10.70;;;5.40;;
39772;SDS011;25451;51.960;6.250;2024-01-11T03:42:28;11.30;;;4.93;;
39772;SDS011;25451;51.960;6.250;2024-01-11T03:44:53;13.15;;;5.38;;
39772;SDS011;25451;51.960;6.250;2024-01-11T03:47:19;12.23;;;6.13;;
39772;SDS011;25451;51.960;6.250;2024-01-11T03:49:44;7.27;;;4.10;;
39772;SDS011;25451;51.960;6.250;2024-01-11T03:52:09;9.50;;;4.57;;
39772;SDS011;25451;51.960;6.250;2024-01-11T03:54:35;10.50;;;5.33;;
39772;SDS011;25451;51.960;6.250;2024-01-11T03:57:00;11.38;;;4.85;;
39772;SDS011;25451;51.960;6.250;2024-01-11T03:59:26;7.70;;;4.23;;
39772;SDS011;25451;51.960;6.250;2024-01-11T04:01:51;13.37;;;5.47;;
39772;SDS011;25451;51.960;6.250;2024-01-11T04:04:17;14.45;;;5.70;;
39772;SDS011;25451;51.960;6.250;2024-01-11T04:06:42;11.87;;;5.10;;
39772;SDS011;25451;51.960;6.250;2024-01-11T04:09:08;13.90;;;5.00;;
39772;SDS011;25451;51.960;6.250;2024-01-11T04:11:33;9.80;;;4.63;;
39772;SDS011;25451;51.960;6.250;2024-01-11T04:13:58;15.83;;;5.57;;
39772;SDS011;25451;51.960;6.250;2024-01-11T04:16:24;10.97;;;5.10;;
39772;SDS011;25451;51.960;6.250;2024-01-11T04:18:49;11.30;;;4.83;;
39772;SDS011;25451;51.960;6.250;2024-01-11T04:21:23;12.03;;;5.30;;
39772;SDS011;25451;51.960;6.250;2024-01-11T04:23:53;15.45;;;5.25;;
39772;SDS011;25451;51.960;6.250;2024-01-11T04:26:18;10.30;;;4.70;;
39772;SDS011;25451;51.960;6.250;2024-01-11T04:28:46;8.73;;;4.13;;
39772;SDS011;25451;51.960;6.250;2024-01-11T04:31:13;11.75;;;4.43;;
39772;SDS011;25451;51.960;6.250;2024-01-11T04:33:42;10.67;;;4.43;;
39772;SDS011;25451;51.960;6.250;2024-01-11T04:36:09;8.48;;;3.92;;
39772;SDS011;25451;51.960;6.250;2024-01-11T04:38:34;13.65;;;5.30;;
39772;SDS011;25451;51.960;6.250;2024-01-11T04:41:00;9.40;;;4.17;;
39772;SDS011;25451;51.960;6.250;2024-01-11T04:43:25;12.63;;;5.28;;
39772;SDS011;25451;51.960;6.250;2024-01-11T04:45:51;10.70;;;4.97;;
39772;SDS011;25451;51.960;6.250;2024-01-11T04:48:16;11.03;;;5.23;;
39772;SDS011;25451;51.960;6.250;2024-01-11T04:50:42;13.47;;;4.67;;
39772;SDS011;25451;51.960;6.250;2024-01-11T04:53:08;9.85;;;5.10;;
39772;SDS011;25451;51.960;6.250;2024-01-11T04:55:34;13.33;;;5.57;;
39772;SDS011;25451;51.960;6.250;2024-01-11T04:57:59;12.27;;;4.50;;
39772;SDS011;25451;51.960;6.250;2024-01-11T05:00:24;8.50;;;4.13;;
39772;SDS011;25451;51.960;6.250;2024-01-11T05:02:49;13.30;;;5.60;;
39772;SDS011;25451;51.960;6.250;2024-01-11T05:05:15;10.60;;;4.93;;
39772;SDS011;25451;51.960;6.250;2024-01-11T05:07:40;9.02;;;4.03;;
39772;SDS011;25451;51.960;6.250;2024-01-11T05:10:06;7.93;;;3.80;;
39772;SDS011;25451;51.960;6.250;2024-01-11T05:12:31;13.53;;;4.67;;
39772;SDS011;25451;51.960;6.250;2024-01-11T05:14:57;9.60;;;4.33;;
39772;SDS011;25451;51.960;6.250;2024-01-11T05:17:22;10.30;;;4.73;;
39772;SDS011;25451;51.960;6.250;2024-01-11T05:19:47;9.00;;;4.50;;
39772;SDS011;25451;51.960;6.250;2024-01-11T05:22:13;8.13;;;4.23;;
39772;SDS011;25451;51.960;6.250;2024-01-11T05:24:38;14.00;;;4.47;;
39772;SDS011;25451;51.960;6.250;2024-01-11T05:27:03;10.07;;;4.15;;
39772;SDS011;25451;51.960;6.250;2024-01-11T05:29:29;8.82;;;4.18;;
39772;SDS011;25451;51.960;6.250;2024-01-11T05:31:54;10.03;;;4.90;;
39772;SDS011;25451;51.960;6.250;2024-01-11T05:34:19;11.50;;;5.37;;
39772;SDS011;25451;51.960;6.250;2024-01-11T05:36:44;8.50;;;4.40;;
39772;SDS011;25451;51.960;6.250;2024-01-11T05:39:10;10.20;;;4.73;;
39772;SDS011;25451;51.960;6.250;2024-01-11T05:41:35;12.87;;;4.27;;
39772;SDS011;25451;51.960;6.250;2024-01-11T05:44:00;9.97;;;4.63;;
39772;SDS011;25451;51.960;6.250;2024-01-11T05:46:26;10.33;;;4.90;;
39772;SDS011;25451;51.960;6.250;2024-01-11T05:48:51;11.27;;;4.67;;
39772;SDS011;25451;51.960;6.250;2024-01-11T05:51:16;8.30;;;4.23;;
39772;SDS011;25451;51.960;6.250;2024-01-11T05:53:41;8.33;;;4.20;;
39772;SDS011;25451;51.960;6.250;2024-01-11T05:56:10;9.77;;;4.67;;
39772;SDS011;25451;51.960;6.250;2024-01-11T05:58:35;13.43;;;4.90;;
39772;SDS011;25451;51.960;6.250;2024-01-11T06:01:04;9.95;;;4.38;;
39772;SDS011;25451;51.960;6.250;2024-01-11T06:03:29;9.67;;;4.40;;
39772;SDS011;25451;51.960;6.250;2024-01-11T06:05:55;11.23;;;4.10;;
39772;SDS011;25451;51.960;6.250;2024-01-11T06:08:20;12.40;;;5.40;;
39772;SDS011;25451;51.960;6.250;2024-01-11T06:10:45;9.38;;;4.57;;
39772;SDS011;25451;51.960;6.250;2024-01-11T06:13:11;17.42;;;5.53;;
39772;SDS011;25451;51.960;6.250;2024-01-11T06:15:36;15.30;;;4.90;;
39772;SDS011;25451;51.960;6.250;2024-01-11T06:18:01;12.97;;;5.43;;
39772;SDS011;25451;51.960;6.250;2024-01-11T06:20:27;9.57;;;4.77;;
39772;SDS011;25451;51.960;6.250;2024-01-11T06:22:52;11.83;;;6.07;;
39772;SDS011;25451;51.960;6.250;2024-01-11T06:25:17;11.23;;;5.00;;
39772;SDS011;25451;51.960;6.250;2024-01-11T06:27:43;12.77;;;5.43;;
39772;SDS011;25451;51.960;6.250;2024-01-11T06:30:09;10.23;;;4.83;;
39772;SDS011;25451;51.960;6.250;2024-01-11T06:32:35;10.55;;;4.65;;
39772;SDS011;25451;51.960;6.250;2024-01-11T06:35:00;11.83;;;4.70;;
39772;SDS011;25451;51.960;6.250;2024-01-11T06:37:27;9.05;;;4.65;;
39772;SDS011;25451;51.960;6.250;2024-01-11T06:39:52;11.07;;;4.90;;
39772;SDS011;25451;51.960;6.250;2024-01-11T06:42:17;9.73;;;4.43;;
39772;SDS011;25451;51.960;6.250;2024-01-11T06:44:43;14.43;;;5.47;;
39772;SDS011;25451;51.960;6.250;2024-01-11T06:47:08;10.73;;;5.23;;
39772;SDS011;25451;51.960;6.250;2024-01-11T06:49:33;11.77;;;4.80;;
39772;SDS011;25451;51.960;6.250;2024-01-11T06:51:59;10.07;;;4.70;;
39772;SDS011;25451;51.960;6.250;2024-01-11T06:54:24;12.00;;;5.27;;
39772;SDS011;25451;51.960;6.250;2024-01-11T06:56:49;11.65;;;5.40;;
39772;SDS011;25451;51.960;6.250;2024-01-11T06:59:15;10.70;;;5.27;;
39772;SDS011;25451;51.960;6.250;2024-01-11T07:01:40;9.37;;;5.07;;
39772;SDS011;25451;51.960;6.250;2024-01-11T07:04:05;10.00;;;5.03;;
39772;SDS011;25451;51.960;6.250;2024-01-11T07:06:31;11.83;;;5.27;;
39772;SDS011;25451;51.960;6.250;2024-01-11T07:08:56;15.20;;;6.03;;
39772;SDS011;25451;51.960;6.250;2024-01-11T07:11:21;12.93;;;6.20;;
39772;SDS011;25451;51.960;6.250;2024-01-11T07:13:47;13.80;;;6.33;;
39772;SDS011;25451;51.960;6.250;2024-01-11T07:16:12;12.00;;;5.33;;
39772;SDS011;25451;51.960;6.250;2024-01-11T07:18:37;13.53;;;6.00;;
39772;SDS011;25451;51.960;6.250;2024-01-11T07:21:03;15.57;;;6.03;;
39772;SDS011;25451;51.960;6.250;2024-01-11T07:23:28;13.82;;;6.40;;
39772;SDS011;25451;51.960;6.250;2024-01-11T07:25:53;16.17;;;6.10;;
39772;SDS011;25451;51.960;6.250;2024-01-11T07:28:19;13.67;;;5.60;;
39772;SDS011;25451;51.960;6.250;2024-01-11T07:30:49;13.60;;;5.68;;
39772;SDS011;25451;51.960;6.250;2024-01-11T07:33:15;11.03;;;5.43;;
39772;SDS011;25451;51.960;6.250;2024-01-11T07:35:40;11.67;;;5.03;;
39772;SDS011;25451;51.960;6.250;2024-01-11T07:38:05;15.63;;;7.23;;
39772;SDS011;25451;51.960;6.250;2024-01-11T07:40:31;11.47;;;5.10;;
39772;SDS011;25451;51.960;6.250;2024-01-11T07:42:56;13.10;;;5.87;;
39772;SDS011;25451;51.960;6.250;2024-01-11T07:45:22;11.13;;;6.13;;
39772;SDS011;25451;51.960;6.250;2024-01-11T07:47:47;10.07;;;4.77;;
39772;SDS011;25451;51.960;6.250;2024-01-11T07:50:13;10.50;;;5.30;;
39772;SDS011;25451;51.960;6.250;2024-01-11T07:52:38;9.63;;;4.70;;
39772;SDS011;25451;51.960;6.250;2024-01-11T07:55:06;10.15;;;5.15;;
39772;SDS011;25451;51.960;6.250;2024-01-11T07:57:32;12.45;;;5.55;;
39772;SDS011;25451;51.960;6.250;2024-01-11T07:59:59;12.00;;;6.03;;
39772;SDS011;25451;51.960;6.250;2024-01-11T08:02:24;13.83;;;6.03;;
39772;SDS011;25451;51.960;6.250;2024-01-11T08:04:50;14.40;;;6.30;;
39772;SDS011;25451;51.960;6.250;2024-01-11T08:07:15;12.67;;;6.73;;
39772;SDS011;25451;51.960;6.250;2024-01-11T08:09:40;13.73;;;5.90;;
39772;SDS011;25451;51.960;6.250;2024-01-11T08:12:10;13.75;;;6.28;;
39772;SDS011;25451;51.960;6.250;2024-01-11T08:14:39;11.05;;;5.28;;
39772;SDS011;25451;51.960;6.250;2024-01-11T08:17:06;14.13;;;6.25;;
39772;SDS011;25451;51.960;6.250;2024-01-11T08:19:32;13.10;;;6.13;;
39772;SDS011;25451;51.960;6.250;2024-01-11T08:21:57;17.07;;;7.27;;
39772;SDS011;25451;51.960;6.250;2024-01-11T08:24:23;17.20;;;7.03;;
39772;SDS011;25451;51.960;6.250;2024-01-11T08:26:49;14.07;;;6.07;;
39772;SDS011;25451;51.960;6.250;2024-01-11T08:29:15;15.23;;;6.73;;
39772;SDS011;25451;51.960;6.250;2024-01-11T08:31:40;15.20;;;7.43;;
39772;SDS011;25451;51.960;6.250;2024-01-11T08:34:07;14.38;;;6.78;;
39772;SDS011;25451;51.960;6.250;2024-01-11T08:36:33;16.90;;;6.87;;
39772;SDS011;25451;51.960;6.250;2024-01-11T08:39:01;16.67;;;6.82;;
39772;SDS011;25451;51.960;6.250;2024-01-11T08:41:33;15.47;;;7.03;;
39772;SDS011;25451;51.960;6.250;2024-01-11T08:44:00;17.63;;;7.60;;
39772;SDS011;25451;51.960;6.250;2024-01-11T08:46:27;15.93;;;6.70;;
39772;SDS011;25451;51.960;6.250;2024-01-11T08:48:56;14.32;;;7.03;;
39772;SDS011;25451;51.960;6.250;2024-01-11T08:51:22;15.17;;;6.87;;
39772;SDS011;25451;51.960;6.250;2024-01-11T08:53:47;18.15;;;8.15;;
39772;SDS011;25451;51.960;6.250;2024-01-11T08:56:13;16.23;;;6.97;;
39772;SDS011;25451;51.960;6.250;2024-01-11T08:58:41;15.27;;;6.68;;
39772;SDS011;25451;51.960;6.250;2024-01-11T09:01:06;16.73;;;7.33;;
39772;SDS011;25451;51.960;6.250;2024-01-11T09:03:33;18.17;;;7.32;;
39772;SDS011;25451;51.960;6.250;2024-01-11T09:06:02;14.85;;;7.05;;
39772;SDS011;25451;51.960;6.250;2024-01-11T09:08:27;16.75;;;7.40;;
39772;SDS011;25451;51.960;6.250;2024-01-11T09:10:53;14.03;;;6.93;;
39772;SDS011;25451;51.960;6.250;2024-01-11T09:13:18;14.60;;;7.07;;
39772;SDS011;25451;51.960;6.250;2024-01-11T09:15:44;16.17;;;6.83;;
39772;SDS011;25451;51.960;6.250;2024-01-11T09:18:09;17.45;;;7.95;;
39772;SDS011;25451;51.960;6.250;2024-01-11T09:20:34;15.85;;;7.30;;
39772;SDS011;25451;51.960;6.250;2024-01-11T09:23:00;16.07;;;7.07;;
39772;SDS011;25451;51.960;6.250;2024-01-11T09:25:28;20.30;;;7.53;;
39772;SDS011;25451;51.960;6.250;2024-01-11T09:27:56;14.55;;;7.13;;
39772;SDS011;25451;51.960;6.250;2024-01-11T09:30:21;20.10;;;8.00;;
39772;SDS011;25451;51.960;6.250;2024-01-11T09:32:47;15.90;;;7.87;;
39772;SDS011;25451;51.960;6.250;2024-01-11T09:35:12;18.87;;;8.77;;
39772;SDS011;25451;51.960;6.250;2024-01-11T09:37:38;16.58;;;8.23;;
39772;SDS011;25451;51.960;6.250;2024-01-11T09:40:03;22.60;;;8.67;;
39772;SDS011;25451;51.960;6.250;2024-01-11T09:42:33;18.40;;;7.93;;
39772;SDS011;25451;51.960;6.250;2024-01-11T09:44:58;16.75;;;7.65;;
39772;SDS011;25451;51.960;6.250;2024-01-11T09:47:26;17.17;;;8.15;;
39772;SDS011;25451;51.960;6.250;2024-01-11T09:49:53;19.03;;;8.47;;
39772;SDS011;25451;51.960;6.250;2024-01-11T09:52:20;18.92;;;8.13;;
39772;SDS011;25451;51.960;6.250;2024-01-11T09:54:47;21.10;;;8.23;;
39772;SDS011;25451;51.960;6.250;2024-01-11T09:57:13;20.13;;;8.37;;
39772;SDS011;25451;51.960;6.250;2024-01-11T09:59:44;19.63;;;8.82;;
39772;SDS011;25451;51.960;6.250;2024-01-11T10:02:10;20.60;;;8.48;;
39772;SDS011;25451;51.960;6.250;2024-01-11T10:04:36;20.83;;;8.53;;
39772;SDS011;25451;51.960;6.250;2024-01-11T10:07:02;20.58;;;8.98;;
39772;SDS011;25451;51.960;6.250;2024-01-11T10:09:30;19.83;;;8.57;;
39772;SDS011;25451;51.960;6.250;2024-01-11T10:11:55;22.10;;;9.73;;
39772;SDS011;25451;51.960;6.250;2024-01-11T10:14:21;19.27;;;8.63;;
39772;SDS011;25451;51.960;6.250;2024-01-11T10:16:47;18.53;;;8.77;;
39772;SDS011;25451;51.960;6.250;2024-01-11T10:19:13;21.42;;;9.38;;
39772;SDS011;25451;51.960;6.250;2024-01-11T10:21:41;18.73;;;8.98;;
39772;SDS011;25451;51.960;6.250;2024-01-11T10:24:06;24.17;;;9.30;;
39772;SDS011;25451;51.960;6.250;2024-01-11T10:26:32;22.52;;;9.10;;
39772;SDS011;25451;51.960;6.250;2024-01-11T10:28:59;18.35;;;8.27;;
39772;SDS011;25451;51.960;6.250;2024-01-11T10:31:25;18.67;;;8.40;;
39772;SDS011;25451;51.960;6.250;2024-01-11T10:33:53;20.00;;;9.07;;
39772;SDS011;25451;51.960;6.250;2024-01-11T10:36:19;18.52;;;8.15;;
39772;SDS011;25451;51.960;6.250;2024-01-11T10:38:44;21.92;;;9.05;;
39772;SDS011;25451;51.960;6.250;2024-01-11T10:41:12;19.53;;;9.43;;
39772;SDS011;25451;51.960;6.250;2024-01-11T10:43:40;21.50;;;8.95;;
39772;SDS011;25451;51.960;6.250;2024-01-11T10:46:06;19.83;;;8.63;;
39772;SDS011;25451;51.960;6.250;2024-01-11T10:48:37;19.63;;;8.32;;
39772;SDS011;25451;51.960;6.250;2024-01-11T10:51:07;21.02;;;8.82;;
39772;SDS011;25451;51.960;6.250;2024-01-11T10:53:43;20.00;;;9.27;;
39772;SDS011;25451;51.960;6.250;2024-01-11T10:56:10;19.20;;;8.23;;
39772;SDS011;25451;51.960;6.250;2024-01-11T10:58:41;20.83;;;8.48;;
39772;SDS011;25451;51.960;6.250;2024-01-11T11:01:07;21.35;;;8.88;;
39772;SDS011;25451;51.960;6.250;2024-01-11T11:03:33;20.57;;;8.50;;
39772;SDS011;25451;51.960;6.250;2024-01-11T11:06:00;16.70;;;7.38;;
39772;SDS011;25451;51.960;6.250;2024-01-11T11:08:26;15.32;;;6.85;;
39772;SDS011;25451;51.960;6.250;2024-01-11T11:10:56;18.13;;;7.32;;
39772;SDS011;25451;51.960;6.250;2024-01-11T11:13:31;13.05;;;5.22;;
39772;SDS011;25451;51.960;6.250;2024-01-11T11:15:57;10.53;;;4.30;;
39772;SDS011;25451;51.960;6.250;2024-01-11T11:18:23;10.85;;;4.15;;
39772;SDS011;25451;51.960;6.250;2024-01-11T11:20:50;10.57;;;4.47;;
39772;SDS011;25451;51.960;6.250;2024-01-11T11:23:16;10.43;;;4.13;;
39772;SDS011;25451;51.960;6.250;2024-01-11T11:25:43;11.95;;;4.10;;
39772;SDS011;25451;51.960;6.250;2024-01-11T11:28:11;12.18;;;4.72;;
39772;SDS011;25451;51.960;6.250;2024-01-11T11:30:37;10.20;;;3.90;;
39772;SDS011;25451;51.960;6.250;2024-01-11T11:33:07;12.38;;;4.97;;
39772;SDS011;25451;51.960;6.250;2024-01-11T11:35:34;11.50;;;4.03;;
39772;SDS011;25451;51.960;6.250;2024-01-11T11:38:00;11.80;;;4.75;;
39772;SDS011;25451;51.960;6.250;2024-01-11T11:40:38;14.60;;;5.20;;
39772;SDS011;25451;51.960;6.250;2024-01-11T11:43:08;13.15;;;5.10;;
39772;SDS011;25451;51.960;6.250;2024-01-11T11:45:34;14.57;;;5.57;;
39772;SDS011;25451;51.960;6.250;2024-01-11T11:48:00;12.43;;;4.57;;
39772;SDS011;25451;51.960;6.250;2024-01-11T11:50:25;13.88;;;4.63;;
39772;SDS011;25451;51.960;6.250;2024-01-11T11:52:55;14.87;;;5.20;;
39772;SDS011;25451;51.960;6.250;2024-01-11T11:55:22;13.52;;;5.55;;
39772;SDS011;25451;51.960;6.250;2024-01-11T11:57:49;12.48;;;5.15;;
39772;SDS011;25451;51.960;6.250;2024-01-11T12:00:15;13.73;;;5.38;;
39772;SDS011;25451;51.960;6.250;2024-01-11T12:02:41;17.43;;;5.07;;
39772;SDS011;25451;51.960;6.250;2024-01-11T12:05:06;11.43;;;4.07;;
39772;SDS011;25451;51.960;6.250;2024-01-11T12:07:32;17.00;;;4.83;;
39772;SDS011;25451;51.960;6.250;2024-01-11T12:09:57;15.30;;;5.20;;
39772;SDS011;25451;51.960;6.250;2024-01-11T12:12:22;13.68;;;5.18;;
39772;SDS011;25451;51.960;6.250;2024-01-11T12:14:48;19.23;;;5.93;;
39772;SDS011;25451;51.960;6.250;2024-01-11T12:17:17;16.77;;;5.78;;
39772;SDS011;25451;51.960;6.250;2024-01-11T12:19:42;14.23;;;5.67;;
39772;SDS011;25451;51.960;6.250;2024-01-11T12:22:08;13.30;;;4.77;;
39772;SDS011;25451;51.960;6.250;2024-01-11T12:24:33;16.83;;;5.00;;
39772;SDS011;25451;51.960;6.250;2024-01-11T12:26:59;14.18;;;5.30;;
39772;SDS011;25451;51.960;6.250;2024-01-11T12:29:25;14.33;;;4.93;;
39772;SDS011;25451;51.960;6.250;2024-01-11T12:31:53;13.18;;;4.45;;
39772;SDS011;25451;51.960;6.250;2024-01-11T12:34:19;13.77;;;4.70;;
39772;SDS011;25451;51.960;6.250;2024-01-11T12:36:44;15.85;;;5.28;;
39772;SDS011;25451;51.960;6.250;2024-01-11T12:39:10;13.30;;;4.73;;
39772;SDS011;25451;51.960;6.250;2024-01-11T12:41:38;14.00;;;4.90;;
39772;SDS011;25451;51.960;6.250;2024-01-11T12:44:04;13.95;;;4.97;;
39772;SDS011;25451;51.960;6.250;2024-01-11T12:46:29;13.93;;;4.40;;
39772;SDS011;25451;51.960;6.250;2024-01-11T12:48:54;13.97;;;5.10;;
39772;SDS011;25451;51.960;6.250;2024-01-11T12:51:20;12.20;;;4.73;;
39772;SDS011;25451;51.960;6.250;2024-01-11T12:53:46;17.67;;;5.13;;
39772;SDS011;25451;51.960;6.250;2024-01-11T12:56:12;11.55;;;4.07;;
39772;SDS011;25451;51.960;6.250;2024-01-11T12:58:39;13.23;;;4.43;;
39772;SDS011;25451;51.960;6.250;2024-01-11T13:01:05;14.00;;;4.77;;
39772;SDS011;25451;51.960;6.250;2024-01-11T13:03:32;13.10;;;4.63;;
39772;SDS011;25451;51.960;6.250;2024-01-11T13:05:59;15.05;;;5.28;;
39772;SDS011;25451;51.960;6.250;2024-01-11T13:08:24;14.10;;;4.80;;
39772;SDS011;25451;51.960;6.250;2024-01-11T13:10:50;14.27;;;4.50;;
39772;SDS011;25451;51.960;6.250;2024-01-11T13:13:15;14.32;;;5.05;;
39772;SDS011;25451;51.960;6.250;2024-01-11T13:15:41;14.23;;;4.97;;
39772;SDS011;25451;51.960;6.250;2024-01-11T13:18:06;15.90;;;4.87;;
39772;SDS011;25451;51.960;6.250;2024-01-11T13:20:31;15.43;;;5.50;;
39772;SDS011;25451;51.960;6.250;2024-01-11T13:23:16;14.98;;;4.53;;
39772;SDS011;25451;51.960;6.250;2024-01-11T13:25:45;14.80;;;5.37;;
39772;SDS011;25451;51.960;6.250;2024-01-11T13:28:12;14.38;;;5.10;;
39772;SDS011;25451;51.960;6.250;2024-01-11T13:30:38;14.95;;;5.43;;
39772;SDS011;25451;51.960;6.250;2024-01-11T13:33:04;12.10;;;4.80;;
39772;SDS011;25451;51.960;6.250;2024-01-11T13:35:30;16.13;;;5.53;;
39772;SDS011;25451;51.960;6.250;2024-01-11T13:37:55;17.03;;;4.97;;
39772;SDS011;25451;51.960;6.250;2024-01-11T13:40:21;20.73;;;6.03;;
39772;SDS011;25451;51.960;6.250;2024-01-11T13:42:46;22.30;;;5.40;;
39772;SDS011;25451;51.960;6.250;2024-01-11T13:45:11;19.03;;;6.27;;
39772;SDS011;25451;51.960;6.250;2024-01-11T13:47:37;19.13;;;5.75;;
39772;SDS011;25451;51.960;6.250;2024-01-11T13:50:03;17.53;;;5.87;;
39772;SDS011;25451;51.960;6.250;2024-01-11T13:52:28;19.83;;;6.37;;
39772;SDS011;25451;51.960;6.250;2024-01-11T13:54:54;16.67;;;5.13;;
39772;SDS011;25451;51.960;6.250;2024-01-11T13:57:19;19.58;;;6.38;;
39772;SDS011;25451;51.960;6.250;2024-01-11T13:59:45;12.57;;;4.73;;
39772;SDS011;25451;51.960;6.250;2024-01-11T14:02:11;15.32;;;5.13;;
39772;SDS011;25451;51.960;6.250;2024-01-11T14:04:37;16.57;;;5.50;;
39772;SDS011;25451;51.960;6.250;2024-01-11T14:07:02;13.40;;;4.55;;
39772;SDS011;25451;51.960;6.250;2024-01-11T14:09:28;13.63;;;4.97;;
39772;SDS011;25451;51.960;6.250;2024-01-11T14:11:53;16.63;;;5.95;;
39772;SDS011;25451;51.960;6.250;2024-01-11T14:14:19;17.65;;;5.82;;
39772;SDS011;25451;51.960;6.250;2024-01-11T14:16:45;13.20;;;5.20;;
39772;SDS011;25451;51.960;6.250;2024-01-11T14:19:11;13.20;;;5.22;;
39772;SDS011;25451;51.960;6.250;2024-01-11T14:21:37;13.70;;;5.00;;
39772;SDS011;25451;51.960;6.250;2024-01-11T14:24:05;15.70;;;5.57;;
39772;SDS011;25451;51.960;6.250;2024-01-11T14:26:32;15.75;;;5.45;;
39772;SDS011;25451;51.960;6.250;2024-01-11T14:29:00;13.90;;;4.47;;